createdAt,value
2018-12-23T00:01:01.595Z,6.37
2018-12-23T00:03:39.631Z,5.83
2018-12-23T00:06:12.896Z,5.90
2018-12-23T00:08:47.591Z,5.97
2018-12-23T00:11:25.463Z,6.20
2018-12-23T00:14:04.092Z,5.97
2018-12-23T00:16:42.064Z,5.80
2018-12-23T00:19:13.155Z,5.57
2018-12-23T00:21:52.904Z,6.40
2018-12-23T00:24:31.378Z,6.07
2018-12-23T00:27:10.023Z,6.10
2018-12-23T00:29:44.166Z,6.00
2018-12-23T00:32:14.160Z,6.27
2018-12-23T00:34:53.872Z,6.07
2018-12-23T00:37:31.694Z,5.93
2018-12-23T00:40:05.942Z,6.40
2018-12-23T00:42:37.313Z,5.87
2018-12-23T00:45:16.153Z,5.60
2018-12-23T00:47:54.730Z,6.20
2018-12-23T00:50:33.957Z,5.73
2018-12-23T00:53:03.924Z,5.07
2018-12-23T00:55:38.729Z,5.77
2018-12-23T00:58:10.578Z,6.00
2018-12-23T01:00:50.598Z,5.87
2018-12-23T01:03:28.865Z,6.17
2018-12-23T01:06:13.615Z,6.40
2018-12-23T01:08:47.145Z,6.80
2018-12-23T01:11:18.376Z,7.13
2018-12-23T01:13:57.059Z,6.63
2018-12-23T01:16:28.116Z,6.73
2018-12-23T01:18:57.849Z,7.50
2018-12-23T01:21:27.782Z,7.53
2018-12-23T01:24:05.529Z,7.20
2018-12-23T01:26:36.683Z,8.27
2018-12-23T01:29:08.298Z,7.37
2018-12-23T01:31:48.917Z,6.87
2018-12-23T01:34:27.545Z,6.87
2018-12-23T01:37:08.251Z,7.73
2018-12-23T01:39:39.679Z,7.20
2018-12-23T01:42:17.652Z,7.53
2018-12-23T01:44:56.606Z,7.17
2018-12-23T01:47:34.464Z,7.10
2018-12-23T01:50:05.912Z,6.93
2018-12-23T01:52:37.142Z,7.63
2018-12-23T01:55:15.757Z,7.20
2018-12-23T01:57:46.997Z,7.17
2018-12-23T02:00:24.989Z,7.50
2018-12-23T02:02:59.425Z,6.97
2018-12-23T02:05:45.886Z,6.90
2018-12-23T02:08:12.002Z,7.40
2018-12-23T02:10:50.532Z,7.10
2018-12-23T02:13:24.439Z,6.70
2018-12-23T02:16:09.583Z,7.70
2018-12-23T02:18:44.010Z,6.67
2018-12-23T02:21:17.906Z,7.13
2018-12-23T02:23:49.891Z,7.67
2018-12-23T02:26:20.935Z,7.10
2018-12-23T02:28:56.674Z,7.03
2018-12-23T02:31:28.600Z,7.20
2018-12-23T02:34:06.497Z,7.00
2018-12-23T02:36:44.648Z,7.43
2018-12-23T02:39:15.977Z,7.67
2018-12-23T02:41:47.694Z,7.30
2018-12-23T02:44:25.918Z,7.87
2018-12-23T02:47:00.104Z,8.30
2018-12-23T02:49:31.462Z,7.43
2018-12-23T02:52:02.483Z,8.83
2018-12-23T02:54:41.264Z,8.53
2018-12-23T02:57:12.632Z,8.47
2018-12-23T02:59:51.572Z,9.67
2018-12-23T03:02:29.544Z,9.37
2018-12-23T03:05:00.613Z,9.07
2018-12-23T03:07:34.434Z,10.97
2018-12-23T03:10:07.836Z,9.10
2018-12-23T03:12:37.765Z,10.33
2018-12-23T03:15:17.456Z,9.73
2018-12-23T03:17:48.717Z,10.27
2018-12-23T03:20:26.641Z,9.37
2018-12-23T03:25:57.925Z,10.80
2018-12-23T03:28:29.882Z,10.83
2018-12-23T03:31:01.321Z,12.00
2018-12-23T03:33:39.858Z,11.60
2018-12-23T03:36:20.448Z,13.53
2018-12-23T03:38:51.898Z,13.60
2018-12-23T03:41:29.829Z,14.30
2018-12-23T03:44:08.977Z,13.07
2018-12-23T03:46:46.726Z,14.60
2018-12-23T03:49:18.690Z,14.13
2018-12-23T03:51:53.665Z,13.80
2018-12-23T03:54:27.585Z,13.93
2018-12-23T03:57:07.363Z,14.47
2018-12-23T03:59:38.696Z,13.27
2018-12-23T04:02:10.873Z,13.57
2018-12-23T04:04:49.748Z,12.60
2018-12-23T04:07:21.063Z,11.33
2018-12-23T04:09:53.909Z,11.60
2018-12-23T04:12:32.439Z,10.70
2018-12-23T04:17:57.021Z,10.67
2018-12-23T04:20:35.701Z,9.70
2018-12-23T04:23:06.710Z,9.53
2018-12-23T04:25:44.424Z,9.50
2018-12-23T04:28:16.605Z,10.03
2018-12-23T04:30:54.942Z,10.47
2018-12-23T04:33:24.408Z,9.53
2018-12-23T04:36:03.019Z,9.83
2018-12-23T04:38:34.196Z,10.77
2018-12-23T04:41:04.199Z,10.97
2018-12-23T04:43:42.805Z,10.43
2018-12-23T04:46:25.160Z,10.60
2018-12-23T04:48:59.521Z,10.83
2018-12-23T04:51:40.158Z,10.33
2018-12-23T04:54:19.477Z,11.77
2018-12-23T04:56:50.619Z,11.87
2018-12-23T04:59:25.170Z,12.13
2018-12-23T05:01:56.202Z,11.93
2018-12-23T05:04:34.134Z,12.57
2018-12-23T05:07:17.437Z,14.10
2018-12-23T05:09:49.405Z,12.60
2018-12-23T05:12:29.241Z,12.53
2018-12-23T05:15:07.901Z,12.40
2018-12-23T05:20:32.481Z,13.17
2018-12-23T05:23:03.499Z,13.27
2018-12-23T05:25:41.569Z,14.43
2018-12-23T05:28:13.198Z,14.23
2018-12-23T05:30:53.258Z,14.33
2018-12-23T05:33:33.054Z,13.93
2018-12-23T05:36:11.338Z,14.47
2018-12-23T05:38:44.069Z,14.07
2018-12-23T05:41:22.062Z,13.90
2018-12-23T05:44:01.859Z,14.40
2018-12-23T05:46:40.387Z,14.10
2018-12-23T05:49:14.191Z,13.87
2018-12-23T05:51:52.765Z,14.13
2018-12-23T05:54:26.731Z,14.50
2018-12-23T05:57:05.696Z,14.83
2018-12-23T05:59:35.110Z,15.67
2018-12-23T06:02:07.436Z,14.13
2018-12-23T06:04:45.268Z,15.73
2018-12-23T06:07:19.258Z,14.77
2018-12-23T06:09:53.076Z,14.53
2018-12-23T06:12:27.015Z,14.57
2018-12-23T06:15:05.689Z,14.60
2018-12-23T06:17:40.019Z,13.80
2018-12-23T06:20:13.847Z,13.63
2018-12-23T06:22:45.100Z,13.03
2018-12-23T06:25:16.350Z,12.70
2018-12-23T06:27:54.968Z,12.87
2018-12-23T06:30:32.707Z,13.07
2018-12-23T06:33:06.571Z,13.63
2018-12-23T06:35:45.177Z,13.60
2018-12-23T06:38:19.023Z,12.90
2018-12-23T06:40:58.092Z,13.63
2018-12-23T06:43:31.923Z,14.97
2018-12-23T06:46:11.745Z,12.60
2018-12-23T06:48:41.733Z,12.73
2018-12-23T06:51:22.237Z,12.80
2018-12-23T06:54:00.220Z,12.43
2018-12-23T06:56:29.742Z,12.47
2018-12-23T06:59:08.473Z,13.20
2018-12-23T07:01:46.292Z,12.10
2018-12-23T07:04:17.532Z,11.90
2018-12-23T07:06:49.350Z,12.80
2018-12-23T07:09:21.113Z,12.70
2018-12-23T07:11:51.075Z,13.43
2018-12-23T07:14:28.984Z,11.83
2018-12-23T07:17:06.990Z,11.80
2018-12-23T07:19:38.648Z,12.67
2018-12-23T07:22:16.653Z,11.47
2018-12-23T07:24:55.634Z,12.23
2018-12-23T07:27:25.185Z,11.37
2018-12-23T07:29:56.103Z,12.20
2018-12-23T07:32:34.737Z,11.67
2018-12-23T07:35:12.717Z,11.93
2018-12-23T07:37:46.928Z,11.47
2018-12-23T07:40:18.994Z,11.50
2018-12-23T07:42:49.862Z,10.87
2018-12-23T07:45:28.224Z,10.53
2018-12-23T07:48:00.524Z,12.37
2018-12-23T07:50:39.052Z,11.33
2018-12-23T07:53:17.843Z,12.13
2018-12-23T07:55:55.684Z,12.17
2018-12-23T07:58:26.997Z,12.10
2018-12-23T08:01:05.829Z,12.20
2018-12-23T08:03:44.351Z,12.23
2018-12-23T08:06:23.489Z,11.63
2018-12-23T08:08:57.738Z,11.23
2018-12-23T08:11:36.370Z,11.47
2018-12-23T08:14:15.300Z,10.53
2018-12-23T08:16:49.397Z,11.10
2018-12-23T08:19:20.424Z,9.57
2018-12-23T08:21:59.315Z,10.03
2018-12-23T08:24:33.357Z,9.03
2018-12-23T08:27:12.028Z,9.90
2018-12-23T08:29:44.361Z,8.80
2018-12-23T08:32:23.138Z,8.90
2018-12-23T08:35:02.068Z,9.57
2018-12-23T08:37:44.584Z,9.83
2018-12-23T08:40:20.236Z,9.30
2018-12-23T08:42:55.466Z,9.90
2018-12-23T08:45:34.600Z,9.10
2018-12-23T08:48:05.886Z,10.03
2018-12-23T08:50:43.722Z,9.33
2018-12-23T08:53:17.789Z,9.27
2018-12-23T08:55:55.682Z,8.27
2018-12-23T08:58:27.034Z,8.03
2018-12-23T09:00:57.965Z,8.10
2018-12-23T09:03:35.802Z,7.50
2018-12-23T09:06:09.923Z,7.83
2018-12-23T09:08:41.197Z,8.73
2018-12-23T09:11:10.730Z,7.60
2018-12-23T09:13:43.753Z,7.60
2018-12-23T09:16:13.531Z,7.80
2018-12-23T09:18:45.618Z,7.60
2018-12-23T09:21:24.196Z,6.53
2018-12-23T09:24:02.031Z,7.07
2018-12-23T09:26:33.608Z,6.50
2018-12-23T09:29:10.172Z,6.80
2018-12-23T09:31:47.994Z,6.17
2018-12-23T09:34:21.908Z,6.77
2018-12-23T09:36:59.604Z,6.07
2018-12-23T09:39:33.731Z,5.83
2018-12-23T09:42:13.461Z,6.00
2018-12-23T09:44:43.131Z,6.53
2018-12-23T09:47:13.053Z,6.80
2018-12-23T09:49:45.323Z,6.20
2018-12-23T09:52:23.694Z,6.27
2018-12-23T09:54:54.309Z,6.27
2018-12-23T09:57:28.611Z,5.70
2018-12-23T10:00:00.841Z,6.40
2018-12-23T10:02:39.067Z,6.20
2018-12-23T10:05:19.381Z,7.20
2018-12-23T10:07:53.694Z,5.67
2018-12-23T10:10:28.481Z,5.90
2018-12-23T10:12:59.791Z,6.47
2018-12-23T10:15:31.636Z,6.57
2018-12-23T10:18:02.996Z,6.07
2018-12-23T10:20:34.239Z,6.80
2018-12-23T10:23:05.392Z,7.20
2018-12-23T10:25:37.459Z,6.77
2018-12-23T10:28:08.510Z,6.60
2018-12-23T10:30:46.996Z,7.33
2018-12-23T10:33:26.100Z,6.00
2018-12-23T10:35:58.051Z,6.60
2018-12-23T10:38:30.293Z,6.90
2018-12-23T10:41:09.079Z,6.83
2018-12-23T10:43:44.206Z,7.60
2018-12-23T10:46:25.951Z,6.87
2018-12-23T10:48:57.516Z,7.30
2018-12-23T10:51:31.693Z,7.20
2018-12-23T10:54:05.705Z,8.60
2018-12-23T10:56:37.271Z,8.20
2018-12-23T10:59:09.028Z,7.67
2018-12-23T11:01:49.759Z,8.77
2018-12-23T11:04:21.220Z,8.30
2018-12-23T11:07:00.064Z,10.27
2018-12-23T11:09:31.712Z,10.20
2018-12-23T11:12:09.460Z,9.80
2018-12-23T11:14:39.141Z,9.10
2018-12-23T11:17:08.995Z,9.77
2018-12-23T11:19:38.977Z,8.27
2018-12-23T11:22:10.028Z,8.23
2018-12-23T11:24:48.570Z,8.27
2018-12-23T11:27:22.511Z,8.60
2018-12-23T11:29:55.906Z,7.60
2018-12-23T11:32:25.905Z,8.33
2018-12-23T11:35:05.212Z,8.60
2018-12-23T11:37:42.960Z,6.57
2018-12-23T11:43:13.913Z,7.57
2018-12-23T11:45:53.109Z,7.10
2018-12-23T11:48:25.121Z,6.67
2018-12-23T11:51:06.765Z,7.63
2018-12-23T11:53:45.499Z,6.53
2018-12-23T11:56:25.510Z,6.97
2018-12-23T11:58:56.949Z,6.60
2018-12-23T12:01:27.026Z,5.83
2018-12-23T12:03:56.873Z,6.80
2018-12-23T12:06:29.818Z,6.37
2018-12-23T12:09:06.917Z,6.30
2018-12-23T12:11:34.074Z,6.57
2018-12-23T12:14:12.685Z,6.30
2018-12-23T12:16:53.343Z,7.33
2018-12-23T12:19:25.100Z,7.50
2018-12-23T12:22:03.986Z,7.10
2018-12-23T12:24:41.884Z,6.60
2018-12-23T12:27:20.015Z,6.30
2018-12-23T12:29:54.305Z,5.87
2018-12-23T12:32:25.391Z,5.50
2018-12-23T12:35:04.134Z,5.57
2018-12-23T12:37:35.358Z,5.57
2018-12-23T12:40:05.552Z,5.17
2018-12-23T12:42:39.819Z,6.10
2018-12-23T12:45:20.400Z,4.60
2018-12-23T12:47:54.731Z,5.30
2018-12-23T12:50:32.688Z,5.70
2018-12-23T12:53:04.253Z,5.97
2018-12-23T12:55:44.510Z,5.70
2018-12-23T12:58:16.362Z,5.63
2018-12-23T13:00:56.784Z,6.03
2018-12-23T13:03:35.219Z,5.50
2018-12-23T13:06:13.417Z,5.10
2018-12-23T13:08:44.833Z,5.37
2018-12-23T13:11:20.079Z,4.83
2018-12-23T13:13:59.206Z,4.07
2018-12-23T13:16:38.638Z,4.20
2018-12-23T13:19:10.826Z,5.13
2018-12-23T13:21:50.222Z,5.07
2018-12-23T13:24:29.332Z,5.47
2018-12-23T13:27:08.445Z,5.50
2018-12-23T13:29:41.749Z,6.40
2018-12-23T13:32:19.594Z,6.00
2018-12-23T13:34:53.982Z,5.87
2018-12-23T13:37:33.729Z,5.07
2018-12-23T13:40:11.177Z,5.33
2018-12-23T13:46:35.268Z,6.70
2018-12-23T13:49:44.713Z,6.40
2018-12-23T13:52:52.761Z,6.23
2018-12-23T13:55:59.695Z,5.83
2018-12-23T13:59:07.752Z,6.20
2018-12-23T14:02:15.879Z,5.40
2018-12-23T14:05:24.121Z,5.57
2018-12-23T14:08:32.173Z,6.30
2018-12-23T14:11:41.571Z,6.00
2018-12-23T14:14:10.917Z,5.50
2018-12-23T14:16:59.678Z,5.97
2018-12-23T14:19:29.108Z,5.20
2018-12-23T14:21:58.547Z,5.53
2018-12-23T14:24:27.924Z,5.20
2018-12-23T14:26:57.365Z,5.30
2018-12-23T14:29:26.874Z,5.37
2018-12-23T14:32:15.831Z,4.87
2018-12-23T14:34:45.555Z,5.60
2018-12-23T14:37:14.926Z,5.40
2018-12-23T14:39:44.282Z,5.20
2018-12-23T14:42:32.989Z,5.53
2018-12-23T14:45:02.425Z,5.30
2018-12-23T14:50:26.197Z,5.37
2018-12-23T14:52:55.633Z,5.17
2018-12-23T14:55:44.321Z,5.20
2018-12-23T15:04:41.666Z,4.90
2018-12-23T15:07:30.511Z,4.50
2018-12-23T15:10:19.189Z,4.70
2018-12-23T15:12:48.687Z,4.73
2018-12-23T15:15:37.476Z,4.80
2018-12-23T15:18:06.984Z,4.93
2018-12-23T15:27:04.579Z,4.90
2018-12-23T15:29:34.225Z,4.13
2018-12-23T15:32:03.607Z,4.50
2018-12-23T15:34:32.972Z,4.40
2018-12-23T15:40:17.215Z,5.23
2018-12-23T15:42:46.739Z,5.37
2018-12-23T15:45:16.121Z,5.00
2018-12-23T15:47:45.651Z,5.33
2018-12-23T15:50:34.523Z,5.30
2018-12-23T15:53:03.894Z,5.50
2018-12-23T15:55:33.346Z,6.00
2018-12-23T16:01:11.699Z,5.33
2018-12-23T16:03:41.052Z,5.70
2018-12-23T16:06:29.923Z,5.47
2018-12-23T16:09:18.762Z,5.70
2018-12-23T16:11:48.190Z,5.63
2018-12-23T16:14:36.977Z,5.30
2018-12-23T16:17:06.353Z,5.20
2018-12-23T16:19:55.071Z,5.50
2018-12-23T16:22:24.470Z,5.13
2018-12-23T16:24:53.829Z,5.77
2018-12-23T16:27:23.206Z,5.40
2018-12-23T16:29:52.703Z,5.53
2018-12-23T16:35:56.292Z,4.77
2018-12-23T16:38:25.701Z,5.20
2018-12-23T16:41:14.416Z,4.87
2018-12-23T16:46:38.197Z,4.90
2018-12-23T16:49:07.594Z,5.63
2018-12-23T16:52:17.194Z,5.97
2018-12-23T16:54:46.605Z,5.07
2018-12-23T16:57:15.970Z,4.87
2018-12-23T16:59:45.462Z,4.63
2018-12-23T17:02:34.172Z,4.90
2018-12-23T17:05:03.669Z,4.90
2018-12-23T17:07:33.062Z,5.00
2018-12-23T17:10:08.206Z,5.33
2018-12-23T17:13:04.521Z,5.70
2018-12-23T17:15:33.956Z,5.63
2018-12-23T17:18:03.407Z,5.93
2018-12-23T17:20:32.922Z,7.27
2018-12-23T17:23:02.986Z,6.60
2018-12-23T17:25:32.430Z,6.30
2018-12-23T17:30:57.530Z,6.50
2018-12-23T17:36:40.644Z,6.33
2018-12-23T17:39:10.364Z,6.50
2018-12-23T17:41:39.727Z,7.20
2018-12-23T17:47:36.655Z,7.07
2018-12-23T17:50:46.344Z,6.60
2018-12-23T17:53:15.744Z,7.17
2018-12-23T17:56:04.592Z,7.10
2018-12-23T17:58:33.937Z,7.47
2018-12-23T18:01:03.353Z,6.97
2018-12-23T18:03:52.052Z,7.40
2018-12-23T18:06:40.741Z,7.70
2018-12-23T18:09:10.120Z,7.63
2018-12-23T18:11:39.464Z,7.60
2018-12-23T18:14:08.816Z,8.17
2018-12-23T18:16:38.165Z,8.20
2018-12-23T18:19:07.527Z,8.40
2018-12-23T18:21:56.202Z,8.30
2018-12-23T18:24:25.560Z,7.73
2018-12-23T18:26:55.136Z,7.77
2018-12-23T18:29:43.863Z,8.07
2018-12-23T18:32:13.197Z,8.20
2018-12-23T18:35:01.913Z,9.07
2018-12-23T18:40:58.332Z,8.30
2018-12-23T18:43:46.999Z,8.43
2018-12-23T18:46:35.712Z,8.30
2018-12-23T18:49:24.405Z,8.57
2018-12-23T18:51:53.775Z,8.43
2018-12-23T18:54:23.107Z,8.53
2018-12-23T18:57:11.820Z,8.60
2018-12-23T19:00:00.504Z,8.67
2018-12-23T19:03:09.916Z,8.50
2018-12-23T19:05:39.251Z,10.03
2018-12-23T19:08:08.688Z,11.33
2018-12-23T19:11:18.078Z,9.70
2018-12-23T19:17:58.744Z,10.13
2018-12-23T19:21:06.799Z,10.53
2018-12-23T19:24:14.867Z,12.53
2018-12-23T19:27:24.327Z,11.20
2018-12-23T19:30:33.785Z,10.43
2018-12-23T19:33:43.205Z,10.07
2018-12-23T19:36:52.722Z,11.10
2018-12-23T19:40:00.767Z,10.90
2018-12-23T19:43:10.177Z,11.90
2018-12-23T19:46:19.580Z,10.77
2018-12-23T19:49:27.638Z,10.23
2018-12-23T19:52:35.708Z,10.57
2018-12-23T19:55:43.784Z,10.60
2018-12-23T19:58:53.187Z,11.40
2018-12-23T20:02:02.594Z,10.83
2018-12-23T20:05:10.665Z,10.37
2018-12-23T20:08:20.074Z,9.30
2018-12-23T20:11:28.501Z,9.87
2018-12-23T20:14:37.921Z,9.37
2018-12-23T20:17:47.440Z,8.23
2018-12-23T20:20:55.618Z,6.90
2018-12-23T20:24:05.140Z,7.10
2018-12-23T20:27:13.332Z,6.50
2018-12-23T20:30:22.712Z,6.43
2018-12-23T20:33:30.784Z,7.27
2018-12-23T20:36:39.077Z,8.10
2018-12-23T20:39:48.699Z,6.80
2018-12-23T20:42:58.183Z,7.90
2018-12-23T20:46:07.634Z,8.27
2018-12-23T20:49:15.705Z,7.53
2018-12-23T20:52:25.183Z,5.17
2018-12-23T20:55:34.615Z,4.67
2018-12-23T20:58:44.024Z,4.70
2018-12-23T21:01:52.076Z,4.67
2018-12-23T21:05:00.473Z,4.90
2018-12-23T21:08:09.966Z,5.40
2018-12-23T21:11:21.158Z,5.67
2018-12-23T21:14:02.860Z,5.87
2018-12-23T21:17:10.949Z,5.97
2018-12-23T21:20:19.006Z,5.13
2018-12-23T21:23:27.043Z,5.60
2018-12-23T21:26:36.477Z,5.83
2018-12-23T21:32:33.955Z,5.97
2018-12-23T21:35:43.419Z,5.10
2018-12-23T21:38:51.499Z,4.60
2018-12-23T21:44:48.793Z,4.33
2018-12-23T21:47:58.173Z,4.63
2018-12-23T21:51:06.245Z,4.60
2018-12-23T21:54:15.840Z,4.70
2018-12-23T21:57:23.900Z,4.60
2018-12-23T22:00:32.125Z,4.50
2018-12-23T22:03:40.177Z,3.40
2018-12-23T22:06:48.331Z,3.37
2018-12-23T22:09:56.484Z,3.43
2018-12-23T22:13:05.866Z,3.90
2018-12-23T22:15:55.170Z,3.67
2018-12-23T22:18:24.485Z,3.57
2018-12-23T22:20:53.830Z,3.93
2018-12-23T22:23:23.343Z,3.60
2018-12-23T22:25:52.769Z,3.40
2018-12-23T22:28:41.653Z,3.47
2018-12-23T22:31:11.005Z,3.63
2018-12-23T22:33:59.738Z,3.83
2018-12-23T22:36:29.084Z,4.00
2018-12-23T22:42:11.595Z,3.97
2018-12-23T22:45:00.316Z,3.87
2018-12-23T22:47:29.718Z,3.90
2018-12-23T22:49:59.218Z,3.90
2018-12-23T22:52:28.562Z,4.27
2018-12-23T22:57:36.235Z,4.20
2018-12-23T23:00:28.118Z,3.80
2018-12-23T23:02:57.715Z,4.07
2018-12-23T23:05:27.046Z,4.47
2018-12-23T23:08:10.343Z,4.57
2018-12-23T23:11:05.985Z,5.43
2018-12-23T23:13:35.352Z,5.03
2018-12-23T23:16:24.066Z,5.77
2018-12-23T23:18:53.481Z,5.70
2018-12-23T23:21:22.824Z,6.70
2018-12-23T23:23:52.246Z,6.40
2018-12-23T23:26:21.600Z,5.87
2018-12-23T23:31:44.608Z,5.17
2018-12-23T23:40:21.815Z,4.97
2018-12-23T23:42:51.131Z,4.90
2018-12-23T23:45:20.474Z,4.30
2018-12-23T23:48:09.217Z,4.40
2018-12-23T23:50:38.551Z,3.70
2018-12-23T23:53:27.257Z,3.60
2018-12-23T23:55:56.607Z,3.00
2018-12-23T23:58:25.961Z,3.00
